Time;durP1;ratioP1;P1;durP2;ratioP2;P2;SDS_P1;SDS_P2;PMS_P1;PMS_P2;Temp;Humidity;BMP_temperature;BMP_pressure;BME280_temperature;BME280_humidity;BME280_pressure;Samples;Min_cycle;Max_cycle;Signal;HPM_P1;HPM_P2
2022/08/12 00:44:23;;;;;;;10.33;4.50;;;;;;;;;;5081294;28;20336;-72
2022/08/12 00:46:51;;;;;;;8.20;4.67;;;;;;;;;;5081620;28;20220;-72
2022/08/12 00:49:19;;;;;;;10.50;5.10;;;;;;;;;;5079007;28;20225;-71
2022/08/12 00:54:32;;;;;;;9.20;4.97;;;;;;;;;;5080290;28;20696;-72
2022/08/12 00:57:02;;;;;;;10.73;4.57;;;;;;;;;;5078733;28;20214;-72
2022/08/12 00:59:30;;;;;;;7.10;4.97;;;;;;;;;;5077279;28;20243;-71
2022/08/12 01:01:57;;;;;;;9.30;4.67;;;;;;;;;;5079607;28;20657;-72
2022/08/12 01:12:43;;;;;;;7.87;4.83;;;;;;;;;;5082012;28;20664;-72
2022/08/12 01:15:12;;;;;;;11.17;4.67;;;;;;;;;;5077946;28;20206;-72
2022/08/12 01:17:42;;;;;;;7.47;4.90;;;;;;;;;;5080702;28;20301;-72
2022/08/12 01:20:13;;;;;;;11.30;5.13;;;;;;;;;;5079145;28;20220;-71
2022/08/12 01:22:46;;;;;;;7.33;5.23;;;;;;;;;;5079348;28;20198;-72
2022/08/12 01:25:17;;;;;;;9.47;4.80;;;;;;;;;;5078939;28;20296;-72
2022/08/12 01:27:45;;;;;;;7.13;5.00;;;;;;;;;;5079581;28;20746;-72
2022/08/12 01:30:13;;;;;;;9.53;4.47;;;;;;;;;;5081239;28;20644;-72
2022/08/12 01:32:41;;;;;;;7.20;5.17;;;;;;;;;;5080386;28;20207;-72
2022/08/12 01:35:10;;;;;;;8.53;5.27;;;;;;;;;;5079163;28;20208;-72
2022/08/12 01:37:43;;;;;;;7.00;4.67;;;;;;;;;;5080764;28;20703;-72
2022/08/12 01:40:11;;;;;;;6.73;5.03;;;;;;;;;;5077492;28;20217;-71
2022/08/12 01:42:43;;;;;;;7.03;4.77;;;;;;;;;;5078746;28;20197;-71
2022/08/12 01:45:11;;;;;;;10.33;5.30;;;;;;;;;;5075042;28;20214;-71
2022/08/12 01:47:48;;;;;;;9.83;4.93;;;;;;;;;;5075115;28;20222;-72
2022/08/12 01:50:21;;;;;;;9.37;5.10;;;;;;;;;;5078887;28;20763;-72
2022/08/12 01:52:56;;;;;;;6.77;5.03;;;;;;;;;;5080126;28;20202;-72
2022/08/12 01:55:24;;;;;;;5.60;4.63;;;;;;;;;;5077649;28;20667;-72
2022/08/12 01:57:59;;;;;;;7.10;5.00;;;;;;;;;;5078563;28;20221;-72
2022/08/12 02:00:30;;;;;;;8.20;4.80;;;;;;;;;;5076605;28;20234;-72
2022/08/12 02:03:05;;;;;;;9.50;5.43;;;;;;;;;;5078754;28;20218;-71
2022/08/12 02:11:18;;;;;;;9.73;5.67;;;;;;;;;;5079013;28;20205;-72
2022/08/12 02:13:54;;;;;;;7.30;4.93;;;;;;;;;;5078211;28;20264;-72
2022/08/12 02:16:29;;;;;;;7.10;5.33;;;;;;;;;;5077671;28;20263;-72
2022/08/12 02:19:01;;;;;;;7.00;4.97;;;;;;;;;;5081281;28;20558;-72
2022/08/12 02:21:33;;;;;;;6.90;4.83;;;;;;;;;;5082988;28;20198;-72
2022/08/12 02:24:00;;;;;;;6.80;5.37;;;;;;;;;;5082307;28;20570;-71
2022/08/12 02:26:29;;;;;;;10.20;5.50;;;;;;;;;;5078728;28;20228;-72
2022/08/12 02:28:58;;;;;;;9.30;5.27;;;;;;;;;;5081965;28;20198;-72
2022/08/12 02:31:27;;;;;;;7.87;5.33;;;;;;;;;;5080562;28;20202;-71
2022/08/12 02:33:54;;;;;;;10.00;5.47;;;;;;;;;;5083540;28;20284;-72
2022/08/12 02:36:22;;;;;;;8.03;5.33;;;;;;;;;;5081168;28;21430;-72
2022/08/12 02:38:49;;;;;;;9.90;5.73;;;;;;;;;;5084784;28;20225;-72
2022/08/12 02:41:17;;;;;;;7.33;5.33;;;;;;;;;;5079345;28;20583;-72
2022/08/12 02:43:47;;;;;;;8.97;5.67;;;;;;;;;;5081090;28;20208;-72
2022/08/12 02:46:18;;;;;;;8.77;5.47;;;;;;;;;;5080089;28;20206;-72
2022/08/12 02:48:47;;;;;;;8.97;5.50;;;;;;;;;;5081668;28;20198;-72
2022/08/12 02:51:18;;;;;;;11.27;6.17;;;;;;;;;;5080816;28;20221;-72
2022/08/12 02:53:45;;;;;;;14.70;5.63;;;;;;;;;;5083582;28;20277;-72
2022/08/12 02:56:12;;;;;;;9.00;5.63;;;;;;;;;;5078553;28;20296;-72
2022/08/12 02:58:41;;;;;;;11.93;5.90;;;;;;;;;;5081123;28;20202;-71
2022/08/12 03:01:09;;;;;;;14.23;5.70;;;;;;;;;;5082089;28;20221;-72
2022/08/12 03:03:38;;;;;;;9.23;6.27;;;;;;;;;;5082288;28;20198;-71
2022/08/12 03:06:08;;;;;;;9.40;5.80;;;;;;;;;;5082245;28;20211;-71
2022/08/12 03:08:39;;;;;;;10.47;5.80;;;;;;;;;;5083492;28;20672;-72
2022/08/12 03:11:10;;;;;;;7.10;5.40;;;;;;;;;;5082993;28;20283;-71
2022/08/12 03:13:40;;;;;;;8.83;5.83;;;;;;;;;;5079975;28;20195;-71
2022/08/12 03:16:07;;;;;;;10.00;5.80;;;;;;;;;;5075029;28;20210;-72
2022/08/12 03:18:34;;;;;;;10.03;5.90;;;;;;;;;;5080321;28;20711;-72
2022/08/12 03:21:04;;;;;;;8.90;5.73;;;;;;;;;;5081744;28;20224;-72
2022/08/12 03:23:31;;;;;;;7.87;5.70;;;;;;;;;;5081005;28;20202;-71
2022/08/12 03:26:00;;;;;;;10.40;5.90;;;;;;;;;;5080277;28;20633;-72
2022/08/12 03:31:14;;;;;;;11.37;6.40;;;;;;;;;;5081393;28;20615;-72
2022/08/12 03:33:42;;;;;;;13.57;6.07;;;;;;;;;;5083421;28;20698;-72
2022/08/12 03:36:11;;;;;;;10.07;6.10;;;;;;;;;;5077994;28;20195;-72
2022/08/12 03:38:42;;;;;;;9.10;5.67;;;;;;;;;;5082511;28;20198;-72
2022/08/12 04:00:31;;;;;;;7.83;5.97;;;;;;;;;;5077902;28;20221;-71
2022/08/12 04:03:00;;;;;;;13.43;6.30;;;;;;;;;;5080836;28;20205;-72
2022/08/12 04:05:27;;;;;;;12.53;6.07;;;;;;;;;;5079183;28;20204;-72
2022/08/12 04:08:13;;;;;;;13.67;5.70;;;;;;;;;;5082698;28;20214;-72
2022/08/12 04:13:24;;;;;;;9.67;6.20;;;;;;;;;;5076390;28;20194;-72
2022/08/12 04:15:51;;;;;;;9.77;6.60;;;;;;;;;;5080402;28;20216;-72
2022/08/12 04:18:19;;;;;;;10.20;6.10;;;;;;;;;;5080405;28;20232;-71
2022/08/12 04:20:48;;;;;;;9.90;6.43;;;;;;;;;;5081732;28;20236;-72
2022/08/12 04:23:17;;;;;;;11.57;6.50;;;;;;;;;;5079351;28;20250;-72
2022/08/12 04:25:45;;;;;;;10.30;6.00;;;;;;;;;;5076436;28;20583;-72
2022/08/12 04:28:13;;;;;;;11.23;6.23;;;;;;;;;;5077746;28;20606;-72
2022/08/12 04:30:40;;;;;;;11.23;5.70;;;;;;;;;;5079739;28;20194;-72
2022/08/12 04:33:09;;;;;;;9.07;5.60;;;;;;;;;;5079124;28;20198;-72
2022/08/12 04:35:36;;;;;;;7.60;5.50;;;;;;;;;;5080109;28;20197;-71
2022/08/12 04:38:04;;;;;;;11.63;5.80;;;;;;;;;;5080124;28;20217;-72
2022/08/12 04:40:35;;;;;;;11.27;5.47;;;;;;;;;;5082399;28;20222;-72
2022/08/12 04:43:02;;;;;;;10.67;5.50;;;;;;;;;;5081455;28;20309;-71
2022/08/12 04:45:30;;;;;;;13.27;5.43;;;;;;;;;;5081479;28;20198;-72
2022/08/12 04:47:57;;;;;;;10.47;5.20;;;;;;;;;;5080359;28;20225;-72
2022/08/12 04:50:26;;;;;;;14.47;5.20;;;;;;;;;;5077515;28;20203;-72
2022/08/12 04:52:53;;;;;;;9.27;5.23;;;;;;;;;;5080336;28;20204;-72
2022/08/12 04:55:21;;;;;;;9.03;5.07;;;;;;;;;;5079312;28;20208;-72
2022/08/12 04:57:50;;;;;;;19.20;5.40;;;;;;;;;;5078298;28;20313;-72
2022/08/12 05:00:17;;;;;;;28.17;5.93;;;;;;;;;;5078207;28;20709;-73
2022/08/12 05:02:44;;;;;;;35.63;6.83;;;;;;;;;;5080688;28;20266;-73
2022/08/12 05:05:17;;;;;;;24.67;5.13;;;;;;;;;;5078798;28;20279;-73
2022/08/12 05:07:46;;;;;;;16.13;4.97;;;;;;;;;;5082234;28;20229;-73
2022/08/12 05:10:14;;;;;;;18.23;5.03;;;;;;;;;;5072148;28;20292;-73
2022/08/12 05:12:43;;;;;;;11.23;5.10;;;;;;;;;;5075171;28;20669;-73
2022/08/12 05:15:13;;;;;;;7.80;4.33;;;;;;;;;;5069130;28;20210;-73
2022/08/12 05:17:40;;;;;;;10.53;4.30;;;;;;;;;;5081297;28;20631;-73
2022/08/12 05:20:08;;;;;;;7.07;4.30;;;;;;;;;;5079920;28;20209;-73
2022/08/12 05:22:35;;;;;;;9.17;4.30;;;;;;;;;;5080516;28;20664;-73
2022/08/12 05:25:03;;;;;;;11.47;4.40;;;;;;;;;;5077819;28;20205;-73
2022/08/12 05:27:30;;;;;;;7.77;4.17;;;;;;;;;;5079561;28;20740;-73
2022/08/12 05:29:57;;;;;;;7.57;4.23;;;;;;;;;;5079007;28;20206;-73
2022/08/12 05:32:27;;;;;;;9.23;4.07;;;;;;;;;;5078434;28;20193;-72
2022/08/12 05:34:54;;;;;;;14.40;3.87;;;;;;;;;;5078299;28;20206;-72
2022/08/12 05:37:22;;;;;;;13.57;4.17;;;;;;;;;;5076974;28;20233;-72
2022/08/12 05:39:49;;;;;;;7.97;4.13;;;;;;;;;;5079223;28;20198;-72
2022/08/12 05:42:17;;;;;;;9.40;4.20;;;;;;;;;;5075795;28;20240;-73
2022/08/12 05:44:44;;;;;;;10.13;4.20;;;;;;;;;;5076199;28;20209;-72
2022/08/12 05:47:13;;;;;;;6.63;4.47;;;;;;;;;;5081300;28;20703;-72
2022/08/12 05:49:41;;;;;;;6.40;4.03;;;;;;;;;;5082164;28;20199;-72
2022/08/12 05:52:09;;;;;;;8.30;4.77;;;;;;;;;;5074418;28;20211;-73
2022/08/12 05:54:42;;;;;;;7.90;3.93;;;;;;;;;;5081170;28;20204;-72
2022/08/12 05:57:11;;;;;;;8.33;4.10;;;;;;;;;;5078325;28;20746;-72
2022/08/12 05:59:38;;;;;;;7.60;4.83;;;;;;;;;;5083519;28;20205;-73
2022/08/12 06:02:10;;;;;;;9.37;4.43;;;;;;;;;;5073927;28;20233;-72
2022/08/12 06:04:40;;;;;;;7.43;3.93;;;;;;;;;;5079644;28;20302;-72
2022/08/12 06:07:11;;;;;;;9.07;4.57;;;;;;;;;;5080712;28;20229;-72
2022/08/12 06:09:38;;;;;;;8.83;4.10;;;;;;;;;;5078329;28;20421;-72
2022/08/12 06:12:06;;;;;;;7.27;4.47;;;;;;;;;;5080437;28;20572;-73
2022/08/12 06:14:35;;;;;;;6.00;3.87;;;;;;;;;;5083596;28;20212;-73
2022/08/12 06:17:02;;;;;;;4.80;3.90;;;;;;;;;;5086491;28;20249;-72
2022/08/12 06:19:30;;;;;;;12.47;3.87;;;;;;;;;;5083045;28;20212;-72
2022/08/12 06:21:57;;;;;;;5.13;3.80;;;;;;;;;;5082591;28;20313;-73
2022/08/12 06:24:28;;;;;;;11.77;4.00;;;;;;;;;;5084416;28;20232;-72
2022/08/12 06:26:56;;;;;;;8.70;3.97;;;;;;;;;;5080117;28;20222;-72
2022/08/12 06:29:23;;;;;;;8.63;3.90;;;;;;;;;;5086487;28;20203;-72
2022/08/12 06:31:52;;;;;;;11.60;4.03;;;;;;;;;;5085206;28;20196;-73
2022/08/12 06:34:19;;;;;;;10.33;3.97;;;;;;;;;;5075594;28;20216;-72
2022/08/12 06:36:46;;;;;;;6.63;3.70;;;;;;;;;;5077679;28;20222;-73
2022/08/12 06:39:14;;;;;;;11.03;3.63;;;;;;;;;;5079830;28;20302;-73
2022/08/12 06:44:28;;;;;;;10.73;3.93;;;;;;;;;;5081535;28;20491;-72
2022/08/12 06:46:55;;;;;;;7.37;3.27;;;;;;;;;;5077287;28;20316;-73
2022/08/12 06:49:23;;;;;;;8.90;3.57;;;;;;;;;;5077583;28;20752;-73
2022/08/12 06:51:54;;;;;;;9.43;3.23;;;;;;;;;;5079643;28;20216;-73
2022/08/12 06:54:24;;;;;;;10.37;3.87;;;;;;;;;;5077782;28;20292;-73
2022/08/12 06:56:54;;;;;;;8.10;3.30;;;;;;;;;;5078892;28;20237;-73
2022/08/12 06:59:21;;;;;;;8.77;3.67;;;;;;;;;;5082416;28;20209;-72
2022/08/12 07:01:48;;;;;;;5.37;3.10;;;;;;;;;;5082683;28;20344;-73
2022/08/12 07:04:15;;;;;;;10.90;3.80;;;;;;;;;;5078684;28;20223;-73
2022/08/12 07:06:43;;;;;;;9.83;3.20;;;;;;;;;;5079175;28;20228;-73
2022/08/12 07:09:10;;;;;;;6.03;3.07;;;;;;;;;;5078719;28;20293;-73
2022/08/12 07:11:43;;;;;;;8.63;2.70;;;;;;;;;;5073945;28;20752;-73
2022/08/12 07:14:11;;;;;;;5.60;2.93;;;;;;;;;;5078591;28;20205;-73
2022/08/12 07:16:55;;;;;;;6.77;3.30;;;;;;;;;;5075101;28;20230;-73
2022/08/12 07:19:23;;;;;;;9.50;3.20;;;;;;;;;;5083219;28;20244;-73
2022/08/12 07:21:51;;;;;;;7.87;3.00;;;;;;;;;;5079808;28;20231;-73
2022/08/12 07:24:18;;;;;;;6.10;3.00;;;;;;;;;;5079763;28;20210;-73
2022/08/12 07:26:45;;;;;;;9.10;3.40;;;;;;;;;;5082069;28;20711;-73
2022/08/12 07:29:14;;;;;;;6.77;3.07;;;;;;;;;;5082366;28;20219;-73
2022/08/12 07:31:41;;;;;;;12.73;2.70;;;;;;;;;;5080359;28;20198;-73
2022/08/12 07:34:08;;;;;;;9.60;2.90;;;;;;;;;;5079204;28;20577;-73
2022/08/12 07:36:35;;;;;;;6.35;2.78;;;;;;;;;;5080011;28;20226;-73
2022/08/12 07:39:03;;;;;;;5.35;2.83;;;;;;;;;;5080781;28;20223;-72
2022/08/12 07:41:31;;;;;;;7.47;3.05;;;;;;;;;;5076289;28;20218;-73
2022/08/12 07:43:59;;;;;;;9.68;2.88;;;;;;;;;;5079662;28;20644;-73
2022/08/12 07:46:30;;;;;;;8.27;2.85;;;;;;;;;;5077499;28;20208;-73
2022/08/12 07:48:58;;;;;;;3.97;2.60;;;;;;;;;;5081955;28;20212;-73
2022/08/12 07:51:25;;;;;;;9.60;2.80;;;;;;;;;;5084749;28;20289;-74
2022/08/12 07:53:53;;;;;;;4.15;2.38;;;;;;;;;;5082713;28;20208;-74
2022/08/12 07:56:20;;;;;;;10.88;2.70;;;;;;;;;;5080287;28;20258;-71
2022/08/12 07:58:48;;;;;;;2.92;2.05;;;;;;;;;;5080269;28;20232;-71
2022/08/12 08:01:20;;;;;;;5.68;2.25;;;;;;;;;;5081106;28;20395;-77
2022/08/12 08:06:34;;;;;;;3.03;1.88;;;;;;;;;;5080062;28;20232;-71
2022/08/12 08:09:02;;;;;;;4.90;1.80;;;;;;;;;;5071404;28;20198;-72
2022/08/12 08:14:14;;;;;;;3.42;2.00;;;;;;;;;;5071220;28;20206;-71
2022/08/12 08:16:42;;;;;;;6.15;1.98;;;;;;;;;;5074069;28;20617;-72
2022/08/12 08:19:14;;;;;;;8.85;1.70;;;;;;;;;;5077457;28;20578;-72
2022/08/12 08:21:41;;;;;;;4.80;1.80;;;;;;;;;;5078452;28;20221;-71
2022/08/12 08:24:15;;;;;;;6.78;1.85;;;;;;;;;;5077338;28;20206;-72
2022/08/12 08:26:42;;;;;;;4.65;1.77;;;;;;;;;;5075402;28;20258;-72
2022/08/12 08:29:11;;;;;;;3.45;1.67;;;;;;;;;;5080697;28;20585;-71
2022/08/12 08:31:42;;;;;;;4.93;1.55;;;;;;;;;;5077397;28;20220;-71
2022/08/12 08:34:10;;;;;;;2.78;1.40;;;;;;;;;;5080694;28;20411;-70
2022/08/12 08:36:38;;;;;;;2.63;1.40;;;;;;;;;;5078593;28;20234;-71
2022/08/12 08:39:05;;;;;;;2.90;1.27;;;;;;;;;;5078938;28;20205;-72
2022/08/12 08:44:17;;;;;;;1.90;1.30;;;;;;;;;;5077078;28;20687;-74
2022/08/12 08:46:44;;;;;;;2.55;1.40;;;;;;;;;;5079238;28;20700;-73
2022/08/12 08:49:14;;;;;;;3.37;1.53;;;;;;;;;;5077677;28;21152;-74
2022/08/12 08:51:42;;;;;;;4.13;1.50;;;;;;;;;;5075430;28;20209;-71
2022/08/12 08:54:10;;;;;;;3.27;1.40;;;;;;;;;;5080291;28;20205;-74
2022/08/12 08:56:44;;;;;;;3.90;1.50;;;;;;;;;;5081289;28;20516;-74
2022/08/12 08:59:11;;;;;;;4.00;1.83;;;;;;;;;;5081046;28;20655;-73
2022/08/12 09:01:39;;;;;;;3.90;1.53;;;;;;;;;;5082379;28;20246;-75
2022/08/12 09:04:07;;;;;;;7.53;1.50;;;;;;;;;;5079831;28;20293;-74
2022/08/12 09:06:35;;;;;;;3.53;1.37;;;;;;;;;;5083141;28;20236;-74
2022/08/12 09:09:04;;;;;;;3.17;1.80;;;;;;;;;;5082816;28;20206;-73
2022/08/12 09:14:16;;;;;;;6.80;1.90;;;;;;;;;;5083342;28;20208;-72
2022/08/12 09:16:43;;;;;;;3.50;1.67;;;;;;;;;;5081076;28;20213;-73
2022/08/12 09:19:13;;;;;;;3.07;1.70;;;;;;;;;;5082744;28;20202;-71
2022/08/12 09:21:45;;;;;;;3.30;1.70;;;;;;;;;;5081014;28;20699;-71
2022/08/12 09:24:14;;;;;;;2.70;1.53;;;;;;;;;;5083688;28;20564;-73
2022/08/12 09:26:42;;;;;;;2.97;1.50;;;;;;;;;;5083305;28;20250;-73
2022/08/12 09:29:09;;;;;;;4.67;1.80;;;;;;;;;;5082207;28;20202;-73
2022/08/12 09:31:36;;;;;;;5.27;1.80;;;;;;;;;;5081317;28;20202;-71
2022/08/12 09:34:03;;;;;;;2.43;1.60;;;;;;;;;;5083135;28;20215;-73
2022/08/12 09:36:31;;;;;;;4.80;1.50;;;;;;;;;;5080349;28;20249;-73
2022/08/12 09:39:01;;;;;;;3.23;1.70;;;;;;;;;;5081350;28;20202;-74
2022/08/12 09:41:28;;;;;;;6.03;1.80;;;;;;;;;;5083223;28;20231;-73
2022/08/12 09:46:40;;;;;;;3.10;1.40;;;;;;;;;;5078290;28;20220;-74
2022/08/12 09:49:09;;;;;;;3.87;1.50;;;;;;;;;;5082049;28;20315;-74
2022/08/12 09:51:37;;;;;;;3.07;1.43;;;;;;;;;;5082319;28;20209;-74
2022/08/12 09:54:06;;;;;;;2.83;1.30;;;;;;;;;;5083992;28;20369;-72
2022/08/12 09:56:33;;;;;;;4.17;1.50;;;;;;;;;;5075511;28;20707;-73
2022/08/12 09:59:01;;;;;;;5.53;1.50;;;;;;;;;;5080875;28;20214;-74
2022/08/12 10:01:28;;;;;;;6.77;1.70;;;;;;;;;;5078706;28;20229;-72
2022/08/12 10:03:55;;;;;;;3.10;1.50;;;;;;;;;;5078416;28;22280;-73
2022/08/12 10:06:26;;;;;;;4.50;1.63;;;;;;;;;;5081087;28;20334;-73
2022/08/12 10:08:53;;;;;;;2.87;1.50;;;;;;;;;;5079549;28;20284;-72
2022/08/12 10:14:07;;;;;;;3.60;1.53;;;;;;;;;;5076456;28;20254;-69
2022/08/12 10:16:42;;;;;;;3.00;1.53;;;;;;;;;;5080497;28;20286;-72
2022/08/12 10:19:09;;;;;;;5.87;1.77;;;;;;;;;;5079895;28;20237;-74
2022/08/12 10:21:38;;;;;;;2.63;1.70;;;;;;;;;;5082016;28;20212;-72
2022/08/12 10:24:06;;;;;;;11.43;1.80;;;;;;;;;;5074777;28;20204;-73
2022/08/12 10:32:05;;;;;;;2.40;1.70;;;;;;;;;;5083414;28;20201;-73
2022/08/12 10:34:32;;;;;;;3.83;1.70;;;;;;;;;;5080439;28;20430;-73
2022/08/12 10:37:00;;;;;;;5.30;1.60;;;;;;;;;;5078106;28;20226;-73
2022/08/12 10:39:31;;;;;;;3.40;1.90;;;;;;;;;;5080900;28;20206;-72
2022/08/12 10:44:45;;;;;;;2.97;2.07;;;;;;;;;;5085144;28;20204;-73
2022/08/12 10:47:15;;;;;;;2.70;1.80;;;;;;;;;;5080456;28;20475;-73
2022/08/12 10:49:43;;;;;;;5.03;1.60;;;;;;;;;;5084343;28;20198;-74
2022/08/12 10:52:11;;;;;;;4.13;1.50;;;;;;;;;;5083752;28;20526;-73
2022/08/12 10:54:38;;;;;;;2.67;1.70;;;;;;;;;;5083325;28;20201;-73
2022/08/12 10:57:07;;;;;;;4.93;2.20;;;;;;;;;;5082884;28;20264;-73
2022/08/12 10:59:34;;;;;;;3.90;1.80;;;;;;;;;;5083761;28;20213;-74
2022/08/12 11:02:02;;;;;;;2.00;1.50;;;;;;;;;;5079010;28;20222;-74
2022/08/12 11:04:30;;;;;;;4.40;1.60;;;;;;;;;;5081736;28;20217;-73
2022/08/12 11:06:58;;;;;;;3.00;1.60;;;;;;;;;;5081832;28;20304;-73
2022/08/12 11:09:29;;;;;;;6.10;1.60;;;;;;;;;;5080198;28;20207;-72
2022/08/12 11:11:58;;;;;;;3.10;1.43;;;;;;;;;;5083173;28;20213;-72
2022/08/12 11:14:31;;;;;;;7.23;1.37;;;;;;;;;;5081055;28;20271;-73
2022/08/12 11:16:59;;;;;;;3.07;1.70;;;;;;;;;;5080955;28;20358;-73
2022/08/12 11:19:26;;;;;;;3.10;1.63;;;;;;;;;;5087751;28;20204;-73
2022/08/12 11:21:54;;;;;;;1.87;1.40;;;;;;;;;;5076833;28;20762;-73
2022/08/12 11:24:21;;;;;;;7.57;1.80;;;;;;;;;;5075331;28;20264;-73
2022/08/12 11:26:49;;;;;;;3.27;1.70;;;;;;;;;;5075175;28;20717;-72
2022/08/12 11:29:16;;;;;;;6.63;1.80;;;;;;;;;;5074631;28;20575;-73
2022/08/12 11:31:45;;;;;;;5.13;1.70;;;;;;;;;;5086943;28;20198;-73
2022/08/12 11:34:12;;;;;;;3.57;1.37;;;;;;;;;;5078846;28;20281;-72
2022/08/12 11:36:39;;;;;;;3.23;1.67;;;;;;;;;;5082057;28;20309;-72
2022/08/12 11:39:08;;;;;;;2.97;1.37;;;;;;;;;;5079328;28;20209;-73
2022/08/12 11:41:38;;;;;;;11.60;1.40;;;;;;;;;;5087642;28;20202;-72
2022/08/12 11:44:05;;;;;;;2.57;1.40;;;;;;;;;;5081013;28;20234;-72
2022/08/12 11:46:35;;;;;;;4.20;1.53;;;;;;;;;;5084740;28;20228;-73
2022/08/12 11:49:03;;;;;;;4.23;1.57;;;;;;;;;;5078945;28;20281;-72
2022/08/12 11:51:31;;;;;;;4.10;1.73;;;;;;;;;;5084123;28;20198;-72
2022/08/12 11:53:58;;;;;;;3.40;1.60;;;;;;;;;;5083313;28;20194;-72
2022/08/12 11:56:25;;;;;;;5.50;1.50;;;;;;;;;;5081285;28;20202;-73
2022/08/12 11:58:52;;;;;;;6.43;1.73;;;;;;;;;;5081552;28;20203;-72
2022/08/12 12:01:19;;;;;;;8.57;1.80;;;;;;;;;;5080212;28;20572;-73
2022/08/12 12:03:46;;;;;;;4.40;1.50;;;;;;;;;;5081392;28;20221;-73
2022/08/12 12:06:16;;;;;;;3.60;1.70;;;;;;;;;;5081803;28;20208;-73
2022/08/12 12:08:43;;;;;;;3.33;1.40;;;;;;;;;;5083805;28;20198;-72
2022/08/12 12:11:10;;;;;;;2.27;1.17;;;;;;;;;;5082922;28;20201;-72
2022/08/12 12:13:37;;;;;;;4.33;1.50;;;;;;;;;;5082176;28;20284;-72
2022/08/12 12:16:05;;;;;;;4.57;1.80;;;;;;;;;;5082612;28;20211;-72
2022/08/12 12:18:33;;;;;;;6.30;1.40;;;;;;;;;;5080889;28;20253;-72
2022/08/12 12:21:02;;;;;;;3.43;1.50;;;;;;;;;;5079141;28;20208;-72
2022/08/12 12:23:30;;;;;;;4.03;1.53;;;;;;;;;;5080366;28;20332;-73
2022/08/12 12:25:58;;;;;;;7.27;1.20;;;;;;;;;;5083835;28;20285;-72
2022/08/12 12:28:25;;;;;;;4.87;1.20;;;;;;;;;;5076616;28;20222;-72
2022/08/12 12:30:52;;;;;;;2.63;1.20;;;;;;;;;;5084495;28;20576;-72
2022/08/12 12:33:21;;;;;;;2.43;1.50;;;;;;;;;;5079080;28;20212;-73
2022/08/12 12:35:48;;;;;;;3.43;1.50;;;;;;;;;;5081085;28;20202;-72
2022/08/12 12:38:15;;;;;;;4.10;1.37;;;;;;;;;;5080054;28;20264;-73
2022/08/12 12:40:45;;;;;;;5.17;1.47;;;;;;;;;;5080088;28;20198;-72
2022/08/12 12:43:13;;;;;;;3.07;1.10;;;;;;;;;;5080109;28;20718;-73
2022/08/12 12:45:40;;;;;;;10.57;1.47;;;;;;;;;;5082835;28;20308;-72
2022/08/12 12:48:08;;;;;;;2.90;1.33;;;;;;;;;;5080725;28;20706;-74
2022/08/12 12:50:36;;;;;;;5.23;1.30;;;;;;;;;;5085191;28;20742;-72
2022/08/12 12:53:03;;;;;;;3.57;1.50;;;;;;;;;;5079028;28;20210;-72
2022/08/12 12:55:34;;;;;;;2.93;1.40;;;;;;;;;;5078314;28;20986;-73
2022/08/12 12:58:03;;;;;;;5.87;1.57;;;;;;;;;;5079138;28;20222;-72
2022/08/12 13:00:31;;;;;;;4.13;1.23;;;;;;;;;;5082210;28;20210;-73
2022/08/12 13:02:58;;;;;;;5.57;1.30;;;;;;;;;;5074195;28;20218;-72
2022/08/12 13:05:26;;;;;;;4.30;1.23;;;;;;;;;;5080764;28;20228;-73
2022/08/12 13:07:54;;;;;;;3.93;1.27;;;;;;;;;;5079792;28;20234;-72
2022/08/12 13:10:22;;;;;;;4.07;1.43;;;;;;;;;;5078776;28;20279;-73
2022/08/12 13:12:49;;;;;;;5.00;1.60;;;;;;;;;;5079213;28;20217;-73
2022/08/12 13:15:17;;;;;;;7.60;1.77;;;;;;;;;;5078618;28;20790;-73
2022/08/12 13:17:46;;;;;;;3.47;1.50;;;;;;;;;;5081277;28;20308;-73
2022/08/12 13:20:14;;;;;;;2.97;1.40;;;;;;;;;;5077101;28;20742;-74
2022/08/12 13:22:41;;;;;;;3.90;1.43;;;;;;;;;;5083537;28;20213;-72
2022/08/12 13:25:09;;;;;;;4.27;1.43;;;;;;;;;;5080865;28;20204;-73
2022/08/12 13:27:40;;;;;;;4.40;1.53;;;;;;;;;;5077115;28;20280;-73
2022/08/12 13:30:10;;;;;;;4.10;1.40;;;;;;;;;;5083564;28;20720;-73
2022/08/12 13:32:39;;;;;;;2.93;1.57;;;;;;;;;;5079039;28;20203;-73
2022/08/12 13:35:06;;;;;;;6.67;1.50;;;;;;;;;;5079294;28;20312;-72
2022/08/12 13:37:34;;;;;;;3.07;1.40;;;;;;;;;;5080415;28;20322;-73
2022/08/12 13:40:01;;;;;;;3.77;1.67;;;;;;;;;;5080276;28;20213;-73
2022/08/12 13:42:28;;;;;;;4.27;1.60;;;;;;;;;;5079584;28;20299;-73
2022/08/12 13:44:56;;;;;;;2.17;1.20;;;;;;;;;;5080702;28;20205;-73
2022/08/12 13:47:23;;;;;;;3.93;1.40;;;;;;;;;;5079149;28;20225;-73
2022/08/12 13:49:52;;;;;;;2.13;1.23;;;;;;;;;;5081359;28;20194;-72
2022/08/12 13:52:20;;;;;;;4.73;1.40;;;;;;;;;;5080914;28;20276;-73
2022/08/12 13:54:48;;;;;;;2.17;1.37;;;;;;;;;;5082257;28;20645;-73
2022/08/12 13:57:17;;;;;;;3.77;1.13;;;;;;;;;;5079475;28;20661;-73
2022/08/12 13:59:44;;;;;;;5.60;1.20;;;;;;;;;;5082402;28;20202;-73
2022/08/12 14:02:12;;;;;;;3.90;1.20;;;;;;;;;;5081710;28;20203;-73
2022/08/12 14:04:39;;;;;;;8.23;1.33;;;;;;;;;;5078086;28;20223;-73
2022/08/12 14:07:08;;;;;;;3.37;1.40;;;;;;;;;;5084476;28;20217;-72
2022/08/12 14:10:35;;;;;;;2.30;1.20;;;;;;;;;;5082765;28;20206;-72
2022/08/12 14:12:22;;;;;;;4.00;1.27;;;;;;;;;;5078560;28;20209;-73
2022/08/12 14:14:49;;;;;;;3.60;1.30;;;;;;;;;;5078601;28;20297;-72
2022/08/12 14:17:20;;;;;;;2.37;1.40;;;;;;;;;;5082876;28;20217;-73
2022/08/12 14:22:34;;;;;;;4.40;1.40;;;;;;;;;;5077649;28;21248;-73
2022/08/12 14:25:01;;;;;;;2.03;1.13;;;;;;;;;;5085762;28;20535;-73
2022/08/12 14:27:28;;;;;;;6.37;1.30;;;;;;;;;;5078060;28;20772;-72
2022/08/12 14:29:56;;;;;;;6.30;1.43;;;;;;;;;;5081437;28;20736;-73
2022/08/12 14:32:24;;;;;;;4.80;1.30;;;;;;;;;;5082324;28;20202;-74
2022/08/12 14:34:51;;;;;;;2.60;1.40;;;;;;;;;;5083581;28;20664;-73
2022/08/12 14:37:21;;;;;;;2.00;1.23;;;;;;;;;;5076883;28;20366;-73
2022/08/12 14:39:50;;;;;;;4.33;1.23;;;;;;;;;;5073091;28;20288;-73
2022/08/12 14:42:17;;;;;;;4.87;1.50;;;;;;;;;;5076212;28;20202;-74
2022/08/12 14:44:44;;;;;;;5.00;1.60;;;;;;;;;;5079481;28;20226;-73
2022/08/12 14:47:11;;;;;;;3.07;1.33;;;;;;;;;;5076810;28;20222;-73
2022/08/12 14:49:39;;;;;;;5.37;1.20;;;;;;;;;;5083675;28;20208;-73
2022/08/12 14:52:08;;;;;;;4.17;1.10;;;;;;;;;;5081138;28;20296;-72
2022/08/12 14:54:37;;;;;;;6.73;1.20;;;;;;;;;;5078037;28;20201;-72
2022/08/12 14:57:10;;;;;;;1.93;1.07;;;;;;;;;;5085450;28;20276;-73
2022/08/12 15:02:21;;;;;;;2.60;0.97;;;;;;;;;;5074717;28;20327;-73
2022/08/12 15:04:57;;;;;;;2.10;1.00;;;;;;;;;;5081053;28;20309;-73
2022/08/12 15:07:25;;;;;;;3.03;1.20;;;;;;;;;;5074282;28;20809;-73
2022/08/12 15:09:53;;;;;;;2.67;0.90;;;;;;;;;;5080548;28;20275;-73
2022/08/12 15:12:21;;;;;;;1.60;1.00;;;;;;;;;;5075478;28;20693;-72
2022/08/12 15:14:48;;;;;;;1.63;0.90;;;;;;;;;;5073189;28;20679;-72
2022/08/12 15:17:15;;;;;;;2.30;0.90;;;;;;;;;;5073965;28;20263;-74
2022/08/12 15:19:43;;;;;;;2.70;0.97;;;;;;;;;;5080433;28;20768;-72
2022/08/12 15:22:10;;;;;;;2.93;1.30;;;;;;;;;;5082843;28;20284;-74
2022/08/12 15:24:37;;;;;;;3.17;0.97;;;;;;;;;;5082253;28;20258;-73
2022/08/12 15:27:04;;;;;;;6.53;1.23;;;;;;;;;;5081187;28;20703;-72
2022/08/12 15:29:33;;;;;;;4.57;1.00;;;;;;;;;;5081287;28;20210;-73
2022/08/12 15:32:02;;;;;;;2.70;1.03;;;;;;;;;;5083384;28;20285;-72
2022/08/12 15:34:37;;;;;;;2.63;1.10;;;;;;;;;;5081353;28;20198;-73
2022/08/12 15:37:04;;;;;;;2.93;0.90;;;;;;;;;;5078123;28;20241;-72
2022/08/12 15:39:31;;;;;;;3.60;0.90;;;;;;;;;;5083513;28;20217;-73
2022/08/12 15:41:59;;;;;;;3.63;1.30;;;;;;;;;;5080919;28;20202;-72
2022/08/12 15:44:26;;;;;;;4.77;0.90;;;;;;;;;;5081904;28;20304;-73
2022/08/12 15:46:54;;;;;;;4.50;1.20;;;;;;;;;;5080383;28;20234;-73
2022/08/12 15:49:21;;;;;;;1.97;0.93;;;;;;;;;;5080493;28;20212;-72
2022/08/12 15:51:51;;;;;;;2.30;1.00;;;;;;;;;;5079956;28;20658;-74
2022/08/12 15:54:20;;;;;;;2.13;1.07;;;;;;;;;;5079135;28;20202;-73
2022/08/12 15:56:47;;;;;;;3.90;0.83;;;;;;;;;;5080267;28;20769;-72
2022/08/12 15:59:15;;;;;;;2.63;1.00;;;;;;;;;;5077985;28;20205;-73
2022/08/12 16:01:42;;;;;;;5.10;1.10;;;;;;;;;;5081592;28;20209;-72
2022/08/12 16:04:11;;;;;;;2.23;0.93;;;;;;;;;;5080727;28;20233;-73
2022/08/12 16:06:39;;;;;;;4.30;1.00;;;;;;;;;;5083548;28;20671;-73
2022/08/12 16:09:06;;;;;;;2.00;1.20;;;;;;;;;;5076933;28;21199;-73
2022/08/12 16:11:39;;;;;;;4.00;0.97;;;;;;;;;;5078806;28;20699;-73
2022/08/12 16:14:07;;;;;;;8.60;1.07;;;;;;;;;;5079581;28;20284;-73
2022/08/12 16:16:34;;;;;;;1.67;1.03;;;;;;;;;;5079848;28;20222;-72
2022/08/12 16:19:01;;;;;;;5.00;0.90;;;;;;;;;;5079794;28;20197;-73
2022/08/12 16:21:30;;;;;;;2.43;1.10;;;;;;;;;;5080289;28;20237;-73
2022/08/12 16:23:58;;;;;;;3.87;1.10;;;;;;;;;;5078568;28;20308;-74
2022/08/12 16:26:27;;;;;;;3.50;1.20;;;;;;;;;;5075661;28;20301;-74
2022/08/12 16:28:55;;;;;;;2.40;1.07;;;;;;;;;;5080917;28;20340;-72
2022/08/12 16:31:22;;;;;;;5.00;1.07;;;;;;;;;;5083935;28;20258;-73
2022/08/12 16:33:50;;;;;;;4.30;1.30;;;;;;;;;;5070390;28;20195;-73
2022/08/12 16:36:17;;;;;;;4.10;1.00;;;;;;;;;;5068022;28;20206;-73
2022/08/12 16:38:45;;;;;;;2.00;1.00;;;;;;;;;;5072271;28;20211;-73
2022/08/12 16:41:13;;;;;;;3.00;1.10;;;;;;;;;;5077904;28;20213;-72
2022/08/12 16:43:40;;;;;;;4.73;1.20;;;;;;;;;;5073378;28;20206;-72
2022/08/12 16:46:13;;;;;;;2.57;1.10;;;;;;;;;;5079027;28;20575;-73